Nashville, Tennessee
Current Conditions -  °F | °C
As of 4:53 PM on Thursday 23 Oct 2014 (Local Time) from KBNA Reporting Station
Broken Clouds Broken Clouds  
Wind Chill: 64°   Ceiling: 25000
Heat Index: 64°   Visibility: 10mi
Dew Point: 41°   Wind: 0mph
Humidity: 43%   Direction: NA
Pressure: 30.11"   Gusts: NA
Location:  36.11°N, 86.68°W
Report Text: KBNA 232153Z 00000KT 10SM BKN250 18/05 A3011 RMK AO2 SLP197 T01780050
Loading
Personal Weather Stations






























Interactive Weather Map
Tropical Storm Tracking
New forecast layout! Learn more

10-Day Weather Forecast

Advertisements
Track Severe Weather on mobile